createdAt,value
2022-08-27T00:00:48.149Z,102291.78
2022-08-27T00:03:15.550Z,102300.81
2022-08-27T00:05:43.370Z,102311.75
2022-08-27T00:08:12.711Z,102316.47
2022-08-27T00:10:40.771Z,102328.28
2022-08-27T00:13:08.128Z,102348.44
2022-08-27T00:15:35.112Z,102360.72
2022-08-27T00:18:01.936Z,102372.09
2022-08-27T00:20:28.710Z,102384.50
2022-08-27T00:22:55.874Z,102403.16
2022-08-27T00:25:23.392Z,102412.75
2022-08-27T00:27:50.835Z,102421.38
2022-08-27T00:30:21.050Z,102431.75
2022-08-27T00:32:48.348Z,102444.03
2022-08-27T00:35:16.765Z,102446.53
2022-08-27T00:37:44.602Z,102464.13
2022-08-27T00:40:16.677Z,102466.72
2022-08-27T00:42:45.943Z,102470.13
2022-08-27T00:45:15.461Z,102470.88
2022-08-27T00:47:50.420Z,102471.66
2022-08-27T00:50:23.387Z,102474.31
2022-08-27T00:52:56.739Z,102479.63
2022-08-27T00:55:33.285Z,102477.78
2022-08-27T00:58:09.381Z,102483.06
2022-08-27T01:00:37.321Z,102475.28
2022-08-27T01:03:04.863Z,102472.00
2022-08-27T01:05:33.751Z,102467.69
2022-08-27T01:08:06.711Z,102483.72
2022-08-27T01:10:34.289Z,102477.66
2022-08-27T01:13:01.574Z,102487.50
2022-08-27T01:15:30.543Z,102489.25
2022-08-27T01:17:58.633Z,102495.44
2022-08-27T01:20:35.677Z,102505.97
2022-08-27T01:23:14.472Z,102516.84
2022-08-27T01:25:43.588Z,102523.53
2022-08-27T01:28:12.452Z,102519.69
2022-08-27T01:30:40.257Z,102512.22
2022-08-27T01:33:14.604Z,102497.75
2022-08-27T01:35:43.861Z,102479.81
2022-08-27T01:38:29.933Z,102466.41
2022-08-27T01:40:57.845Z,102439.25
2022-08-27T01:43:24.992Z,102417.94
2022-08-27T01:45:52.223Z,102403.81
2022-08-27T01:48:21.638Z,102388.72
2022-08-27T01:50:49.697Z,102375.53
2022-08-27T01:53:23.090Z,102349.19
2022-08-27T01:55:51.704Z,102336.31
2022-08-27T01:58:21.813Z,102336.53
2022-08-27T02:00:54.196Z,102328.63
2022-08-27T02:03:24.071Z,102324.34
2022-08-27T02:05:52.073Z,102325.41
2022-08-27T02:08:19.558Z,102322.88
2022-08-27T02:10:48.364Z,102320.44
2022-08-27T02:13:15.556Z,102325.75
2022-08-27T02:15:43.815Z,102336.28
2022-08-27T02:18:12.204Z,102338.69
2022-08-27T02:20:39.202Z,102344.47
2022-08-27T02:23:06.520Z,102345.00
2022-08-27T02:25:34.086Z,102337.63
2022-08-27T02:28:01.871Z,102320.63
2022-08-27T02:30:32.052Z,102301.91
2022-08-27T02:33:01.038Z,102289.38
2022-08-27T02:35:30.262Z,102264.81
2022-08-27T02:37:57.436Z,102255.19
2022-08-27T02:40:25.561Z,102234.81
2022-08-27T02:42:52.431Z,102223.31
2022-08-27T02:45:20.796Z,102218.75
2022-08-27T02:47:48.585Z,102209.69
2022-08-27T02:50:16.417Z,102197.22
2022-08-27T02:52:46.467Z,102188.31
2022-08-27T02:55:17.119Z,102187.28
2022-08-27T02:57:44.794Z,102169.56
2022-08-27T03:00:16.666Z,102171.28
2022-08-27T03:02:43.592Z,102158.06
2022-08-27T03:05:12.728Z,102142.44
2022-08-27T03:07:40.314Z,102138.06
2022-08-27T03:10:08.832Z,102125.44
2022-08-27T03:12:36.445Z,102114.09
2022-08-27T03:15:08.514Z,102119.84
2022-08-27T03:17:54.499Z,102108.91
2022-08-27T03:20:22.771Z,102112.53
2022-08-27T03:22:49.722Z,102123.09
2022-08-27T03:25:16.898Z,102127.31
2022-08-27T03:27:43.712Z,102138.44
2022-08-27T03:30:15.901Z,102151.34
2022-08-27T03:32:43.398Z,102158.75
2022-08-27T03:35:10.493Z,102166.13
2022-08-27T03:37:37.303Z,102172.47
2022-08-27T03:40:06.063Z,102188.38
2022-08-27T03:42:32.831Z,102200.78
2022-08-27T03:44:59.549Z,102216.84
2022-08-27T03:47:26.608Z,102217.31
2022-08-27T03:49:53.671Z,102208.31
2022-08-27T03:52:20.924Z,102203.06
2022-08-27T03:54:48.816Z,102206.41
2022-08-27T03:57:15.545Z,102203.69
2022-08-27T03:59:42.317Z,102206.31
2022-08-27T04:02:09.459Z,102206.13
2022-08-27T04:04:36.810Z,102210.09
2022-08-27T04:07:03.806Z,102205.50
2022-08-27T04:09:30.590Z,102197.69
2022-08-27T04:11:57.569Z,102198.69
2022-08-27T04:14:26.915Z,102199.84
2022-08-27T04:16:57.722Z,102209.78
2022-08-27T04:19:27.998Z,102216.34
2022-08-27T04:22:03.127Z,102222.22
2022-08-27T04:24:32.277Z,102228.16
2022-08-27T04:27:00.834Z,102240.16
2022-08-27T04:29:28.545Z,102247.19
2022-08-27T04:31:56.688Z,102268.94
2022-08-27T04:34:24.125Z,102297.53
2022-08-27T04:36:51.284Z,102324.09
2022-08-27T04:39:20.575Z,102334.28
2022-08-27T04:41:50.502Z,102343.78
2022-08-27T04:44:17.276Z,102357.78
2022-08-27T04:46:46.935Z,102363.81
2022-08-27T04:49:17.383Z,102361.03
2022-08-27T04:51:44.201Z,102368.03
2022-08-27T04:54:11.246Z,102374.91
2022-08-27T04:56:39.198Z,102372.84
2022-08-27T04:59:08.237Z,102378.81
2022-08-27T05:01:36.489Z,102371.31
2022-08-27T05:04:04.021Z,102362.19
2022-08-27T05:06:31.321Z,102349.81
2022-08-27T05:08:58.216Z,102330.84
2022-08-27T05:11:29.702Z,102316.44
2022-08-27T05:13:56.579Z,102299.78
2022-08-27T05:16:23.641Z,102280.78
2022-08-27T05:18:52.219Z,102281.34
2022-08-27T05:21:25.485Z,102267.69
2022-08-27T05:23:54.354Z,102260.19
2022-08-27T05:26:21.918Z,102251.66
2022-08-27T05:28:48.704Z,102252.72
2022-08-27T05:31:17.034Z,102251.66
2022-08-27T05:33:44.665Z,102262.56
2022-08-27T05:36:18.465Z,102262.59
2022-08-27T05:38:45.268Z,102262.97
2022-08-27T05:41:17.945Z,102253.38
2022-08-27T05:43:49.873Z,102227.53
2022-08-27T05:46:20.460Z,102200.19
2022-08-27T05:48:48.564Z,102187.28
2022-08-27T05:51:25.591Z,102173.72
2022-08-27T05:54:05.611Z,102162.03
2022-08-27T05:56:38.054Z,102150.31
2022-08-27T05:59:24.346Z,102146.34
2022-08-27T06:01:54.277Z,102125.63
2022-08-27T06:04:24.040Z,102102.56
2022-08-27T06:06:51.912Z,102097.19
2022-08-27T06:09:21.473Z,102086.28
2022-08-27T06:11:49.098Z,102073.59
2022-08-27T06:14:15.990Z,102060.53
2022-08-27T06:16:42.987Z,102051.16
2022-08-27T06:19:12.231Z,102036.53
2022-08-27T06:21:40.696Z,102027.38
2022-08-27T06:24:08.558Z,102012.03
2022-08-27T06:26:36.398Z,102003.44
2022-08-27T06:29:07.588Z,101990.16
2022-08-27T06:31:38.744Z,101978.09
2022-08-27T06:34:09.705Z,101986.66
2022-08-27T06:36:40.011Z,101996.03
2022-08-27T06:39:08.319Z,102019.41
2022-08-27T06:41:35.323Z,102033.94
2022-08-27T06:44:11.781Z,102045.13
2022-08-27T06:46:38.976Z,102050.13
2022-08-27T06:49:06.708Z,102058.03
2022-08-27T06:51:35.587Z,102056.97
2022-08-27T06:54:06.434Z,102045.06
2022-08-27T06:56:33.505Z,102049.00
2022-08-27T06:59:02.845Z,102057.91
2022-08-27T07:01:33.152Z,102062.09
2022-08-27T07:04:02.133Z,102061.59
2022-08-27T07:06:31.701Z,102054.66
2022-08-27T07:08:59.301Z,102063.41
2022-08-27T07:11:27.049Z,102073.59
2022-08-27T07:13:53.903Z,102082.00
2022-08-27T07:16:24.065Z,102078.28
2022-08-27T07:18:53.216Z,102084.72
2022-08-27T07:21:21.069Z,102076.59
2022-08-27T07:23:50.041Z,102063.97
2022-08-27T07:26:17.897Z,102050.31
2022-08-27T07:28:46.583Z,102048.16
2022-08-27T07:31:17.109Z,102030.16
2022-08-27T07:33:51.420Z,102010.88
2022-08-27T07:36:21.047Z,101998.91
2022-08-27T07:38:56.725Z,101997.19
2022-08-27T07:41:30.977Z,101985.66
2022-08-27T07:44:18.332Z,101976.47
2022-08-27T07:46:48.341Z,101976.28
2022-08-27T07:49:17.379Z,101974.69
2022-08-27T07:51:44.867Z,101971.97
2022-08-27T07:54:11.876Z,101972.53
2022-08-27T07:56:38.753Z,101963.56
2022-08-27T07:59:05.518Z,101960.28
2022-08-27T08:01:32.788Z,101965.06
2022-08-27T08:04:00.183Z,101971.75
2022-08-27T08:06:27.085Z,101995.47
2022-08-27T08:08:53.927Z,101990.03
2022-08-27T08:11:20.982Z,101968.00
2022-08-27T08:13:48.301Z,101964.50
2022-08-27T08:16:15.685Z,101963.06
2022-08-27T08:18:42.724Z,101965.00
2022-08-27T08:21:12.675Z,101969.56
2022-08-27T08:23:40.660Z,101968.66
2022-08-27T08:26:08.428Z,101954.25
2022-08-27T08:28:36.694Z,101959.56
2022-08-27T08:31:04.283Z,101950.47
2022-08-27T08:33:31.724Z,101958.75
2022-08-27T08:36:14.941Z,101958.38
2022-08-27T08:38:42.547Z,101959.50
2022-08-27T08:41:28.016Z,101966.66
2022-08-27T08:44:03.473Z,101962.88
2022-08-27T08:46:40.035Z,101973.31
2022-08-27T08:49:52.942Z,101990.00
2022-08-27T08:52:34.806Z,101981.06
2022-08-27T08:55:26.300Z,101948.75
2022-08-27T08:58:19.525Z,101928.25
2022-08-27T09:00:57.674Z,101908.91
2022-08-27T09:03:25.710Z,101914.94
2022-08-27T09:06:05.528Z,101896.03
2022-08-27T09:08:40.655Z,101899.69
2022-08-27T09:11:26.417Z,101908.94
2022-08-27T09:13:59.792Z,101922.38
2022-08-27T09:16:26.977Z,101930.09
2022-08-27T09:18:54.319Z,101929.78
2022-08-27T09:21:51.711Z,101932.31
2022-08-27T09:24:23.072Z,101930.47
2022-08-27T09:26:50.454Z,101938.06
2022-08-27T09:29:20.990Z,101945.59
2022-08-27T09:31:57.313Z,101947.16
2022-08-27T09:34:26.413Z,101941.00
2022-08-27T09:37:00.887Z,101933.47
2022-08-27T09:40:01.862Z,101930.75
2022-08-27T09:42:36.100Z,101921.97
2022-08-27T09:45:08.526Z,101925.69
2022-08-27T09:47:44.766Z,101928.69
2022-08-27T09:50:11.741Z,101932.44
2022-08-27T09:52:56.838Z,101944.63
2022-08-27T09:55:30.762Z,101943.59
2022-08-27T09:57:58.437Z,101938.22
2022-08-27T10:00:40.425Z,101945.06
2022-08-27T10:03:09.176Z,101956.75
2022-08-27T10:05:47.489Z,101952.84
2022-08-27T10:08:30.190Z,101955.03
2022-08-27T10:11:04.484Z,101943.06
2022-08-27T10:13:37.948Z,101938.72
2022-08-27T10:16:20.111Z,101927.44
2022-08-27T10:19:16.805Z,101933.91
2022-08-27T10:21:54.318Z,101931.91
2022-08-27T10:24:21.125Z,101943.34
2022-08-27T10:27:01.912Z,101947.47
2022-08-27T10:29:47.031Z,101948.03
2022-08-27T10:32:41.732Z,101948.03
2022-08-27T10:35:19.813Z,101952.84
2022-08-27T10:38:07.691Z,101943.06
2022-08-27T10:40:42.623Z,101943.38
2022-08-27T10:43:27.469Z,101928.13
2022-08-27T10:46:11.019Z,101926.78
2022-08-27T10:48:48.970Z,101929.00
2022-08-27T10:51:31.142Z,101924.75
2022-08-27T10:54:07.922Z,101916.59
2022-08-27T10:57:26.239Z,101924.19
2022-08-27T11:00:12.280Z,101921.94
2022-08-27T11:02:48.132Z,101922.13
2022-08-27T11:05:24.525Z,101921.22
2022-08-27T11:08:22.064Z,101928.59
2022-08-27T11:10:54.285Z,101924.75
2022-08-27T11:13:38.588Z,101925.66
2022-08-27T11:16:29.157Z,101930.47
2022-08-27T11:19:20.927Z,101931.25
2022-08-27T11:22:01.321Z,101936.91
2022-08-27T11:24:54.246Z,101942.09
2022-08-27T11:27:24.043Z,101934.81
2022-08-27T11:30:02.042Z,101934.84
2022-08-27T11:32:43.914Z,101936.44
2022-08-27T11:35:30.928Z,101942.75
2022-08-27T11:38:27.644Z,101948.75
2022-08-27T11:41:11.040Z,101941.41
2022-08-27T11:43:37.954Z,101947.88
2022-08-27T11:46:08.702Z,101951.28
2022-08-27T11:48:41.751Z,101937.53
2022-08-27T11:51:35.825Z,101939.84
2022-08-27T11:54:07.189Z,101936.75
2022-08-27T11:56:37.010Z,101933.53
2022-08-27T11:59:22.972Z,101939.78
2022-08-27T12:01:52.634Z,101938.72
2022-08-27T12:04:30.367Z,101926.88
2022-08-27T12:07:06.360Z,101920.44
2022-08-27T12:10:02.693Z,101924.88
2022-08-27T12:12:47.507Z,101917.97
2022-08-27T12:15:18.816Z,101922.44
2022-08-27T12:18:00.277Z,101917.53
2022-08-27T12:20:50.181Z,101922.00
2022-08-27T12:23:41.073Z,101911.56
2022-08-27T12:26:31.791Z,101907.38
2022-08-27T12:29:17.453Z,101906.13
2022-08-27T12:31:48.270Z,101899.75
2022-08-27T12:34:19.363Z,101902.53
2022-08-27T12:36:53.486Z,101906.19
2022-08-27T12:39:27.148Z,101887.91
2022-08-27T12:41:55.787Z,101896.97
2022-08-27T12:44:33.040Z,101898.25
2022-08-27T12:47:11.952Z,101902.03
2022-08-27T12:50:01.165Z,101901.31
2022-08-27T12:52:46.628Z,101905.25
2022-08-27T12:55:31.046Z,101904.25
2022-08-27T12:58:20.095Z,101906.72
2022-08-27T13:01:32.290Z,101904.88
2022-08-27T13:04:01.127Z,101888.16
2022-08-27T13:06:30.545Z,101892.84
2022-08-27T13:09:00.045Z,101900.59
2022-08-27T13:11:44.082Z,101900.88
2022-08-27T13:14:19.919Z,101892.47
2022-08-27T13:16:51.602Z,101891.22
2022-08-27T13:19:32.410Z,101909.19
2022-08-27T13:22:01.461Z,101909.56
2022-08-27T13:24:32.693Z,101905.75
2022-08-27T13:27:02.386Z,101899.53
2022-08-27T13:29:29.776Z,101911.38
2022-08-27T13:31:56.742Z,101907.25
2022-08-27T13:34:27.600Z,101904.16
2022-08-27T13:37:06.377Z,101901.22
2022-08-27T13:39:35.744Z,101897.97
2022-08-27T13:42:05.799Z,101897.28
2022-08-27T13:44:36.761Z,101894.56
2022-08-27T13:47:05.379Z,101898.91
2022-08-27T13:49:40.044Z,101896.63
2022-08-27T13:52:29.256Z,101894.97
2022-08-27T13:55:09.389Z,101905.22
2022-08-27T13:57:43.884Z,101901.88
2022-08-27T14:00:17.608Z,101902.72
2022-08-27T14:02:55.375Z,101908.50
2022-08-27T14:05:23.130Z,101901.56
2022-08-27T14:07:53.402Z,101914.88
2022-08-27T14:10:37.636Z,101910.75
2022-08-27T14:13:12.913Z,101906.94
2022-08-27T14:15:45.646Z,101914.22
2022-08-27T14:18:57.303Z,101919.56
2022-08-27T14:21:20.369Z,101914.94
2022-08-27T14:23:47.579Z,101900.53
2022-08-27T14:26:16.420Z,101894.56
2022-08-27T14:28:43.469Z,101895.38
2022-08-27T14:31:11.738Z,101903.69
2022-08-27T14:33:38.734Z,101904.88
2022-08-27T14:36:06.712Z,101912.41
2022-08-27T14:38:35.908Z,101913.00
2022-08-27T14:41:03.497Z,101922.53
2022-08-27T14:43:34.690Z,101923.59
2022-08-27T14:46:03.532Z,101923.75
2022-08-27T14:48:33.647Z,101923.59
2022-08-27T14:51:07.656Z,101932.28
2022-08-27T14:53:34.452Z,101922.84
2022-08-27T14:56:01.824Z,101932.00
2022-08-27T14:58:29.525Z,101930.22
2022-08-27T15:00:57.734Z,101948.38
2022-08-27T15:03:25.567Z,101949.53
2022-08-27T15:05:54.935Z,101949.69
2022-08-27T15:08:27.440Z,101953.44
2022-08-27T15:10:57.184Z,101956.03
2022-08-27T15:13:24.298Z,101958.25
2022-08-27T15:15:52.360Z,101951.91
2022-08-27T15:18:19.722Z,101930.84
2022-08-27T15:20:46.965Z,101929.53
2022-08-27T15:23:15.817Z,101925.25
2022-08-27T15:25:45.711Z,101923.75
2022-08-27T15:28:12.803Z,101918.16
2022-08-27T15:30:39.744Z,101916.34
2022-08-27T15:33:06.807Z,101935.47
2022-08-27T15:35:34.400Z,101943.47
2022-08-27T15:38:01.710Z,101948.59
2022-08-27T15:40:32.068Z,101949.44
2022-08-27T15:43:02.724Z,101948.00
2022-08-27T15:45:31.487Z,101958.72
2022-08-27T15:47:59.326Z,101960.31
2022-08-27T15:50:28.605Z,101971.03
2022-08-27T15:52:59.044Z,101979.38
2022-08-27T15:55:29.876Z,101976.31
2022-08-27T15:57:57.483Z,101978.72
2022-08-27T16:00:25.035Z,101980.69
2022-08-27T16:02:53.176Z,101990.75
2022-08-27T16:05:22.296Z,101992.94
2022-08-27T16:07:49.162Z,101999.97
2022-08-27T16:10:16.714Z,101997.13
2022-08-27T16:12:44.498Z,102003.00
2022-08-27T16:15:11.747Z,101998.38
2022-08-27T16:17:39.279Z,102004.47
2022-08-27T16:20:09.117Z,101994.84
2022-08-27T16:22:36.244Z,101992.22
2022-08-27T16:25:04.452Z,101998.44
2022-08-27T16:27:31.387Z,101990.78
2022-08-27T16:29:58.212Z,101992.16
2022-08-27T16:32:25.837Z,102000.81
2022-08-27T16:34:55.609Z,101997.75
2022-08-27T16:37:24.549Z,102005.13
2022-08-27T16:39:51.409Z,102005.75
2022-08-27T16:42:18.377Z,102002.53
2022-08-27T16:44:45.402Z,102000.97
2022-08-27T16:47:12.364Z,102004.41
2022-08-27T16:49:57.584Z,102001.09
2022-08-27T16:52:24.325Z,102012.38
2022-08-27T16:54:52.255Z,102001.72
2022-08-27T16:57:19.214Z,102010.53
2022-08-27T16:59:46.018Z,102004.31
2022-08-27T17:02:34.868Z,102013.69
2022-08-27T17:05:17.731Z,102020.22
2022-08-27T17:07:49.378Z,102015.00
2022-08-27T17:10:18.323Z,102017.25
2022-08-27T17:12:47.129Z,102007.25
2022-08-27T17:15:18.653Z,102014.59
2022-08-27T17:17:46.019Z,102023.50
2022-08-27T17:20:15.190Z,102014.72
2022-08-27T17:22:42.304Z,102014.66
2022-08-27T17:25:09.957Z,102015.16
2022-08-27T17:27:36.800Z,102018.88
2022-08-27T17:30:04.574Z,102007.75
2022-08-27T17:32:36.912Z,102025.88
2022-08-27T17:35:06.574Z,102030.03
2022-08-27T17:37:33.733Z,102028.38
2022-08-27T17:40:01.063Z,102032.47
2022-08-27T17:42:29.618Z,102042.06
2022-08-27T17:44:57.021Z,102053.50
2022-08-27T17:47:24.996Z,102062.41
2022-08-27T17:49:52.707Z,102068.09
2022-08-27T17:52:20.202Z,102063.22
2022-08-27T17:54:51.016Z,102071.41
2022-08-27T17:57:22.384Z,102077.56
2022-08-27T17:59:49.985Z,102077.38
2022-08-27T18:02:50.815Z,102084.22
2022-08-27T18:05:19.893Z,102095.00
2022-08-27T18:07:47.373Z,102095.94
2022-08-27T18:10:17.628Z,102100.25
2022-08-27T18:12:46.024Z,102101.25
2022-08-27T18:15:20.511Z,102111.97
2022-08-27T18:17:48.496Z,102099.69
2022-08-27T18:20:21.843Z,102112.97
2022-08-27T18:22:49.191Z,102125.59
2022-08-27T18:25:18.004Z,102132.81
2022-08-27T18:27:49.001Z,102121.81
2022-08-27T18:30:16.369Z,102130.28
2022-08-27T18:32:43.257Z,102131.59
2022-08-27T18:35:18.029Z,102129.56
2022-08-27T18:37:45.007Z,102127.94
2022-08-27T18:40:13.308Z,102137.25
2022-08-27T18:42:41.131Z,102145.50
2022-08-27T18:45:22.954Z,102141.63
2022-08-27T18:47:51.660Z,102153.63
2022-08-27T18:50:19.488Z,102147.31
2022-08-27T18:52:48.397Z,102155.03
2022-08-27T18:55:18.716Z,102158.31
2022-08-27T18:57:45.702Z,102165.25
2022-08-27T19:00:14.703Z,102177.88
2022-08-27T19:02:42.845Z,102188.84
2022-08-27T19:05:10.767Z,102192.69
2022-08-27T19:07:37.906Z,102196.94
2022-08-27T19:10:06.569Z,102205.00
2022-08-27T19:12:33.354Z,102207.03
2022-08-27T19:15:04.143Z,102210.88
2022-08-27T19:17:34.844Z,102217.38
2022-08-27T19:20:02.369Z,102214.13
2022-08-27T19:22:31.164Z,102191.63
2022-08-27T19:24:58.763Z,102169.50
2022-08-27T19:27:29.293Z,102177.53
2022-08-27T19:29:56.542Z,102173.09
2022-08-27T19:32:23.396Z,102172.00
2022-08-27T19:34:50.337Z,102168.56
2022-08-27T19:37:24.838Z,102169.00
2022-08-27T19:39:52.853Z,102174.84
2022-08-27T19:42:19.862Z,102182.94
2022-08-27T19:44:47.423Z,102183.25
2022-08-27T19:47:18.911Z,102193.16
2022-08-27T19:49:49.739Z,102188.84
2022-08-27T19:52:16.626Z,102192.34
2022-08-27T19:55:09.840Z,102200.53
2022-08-27T19:57:30.230Z,102193.47
2022-08-27T19:59:57.079Z,102193.31
2022-08-27T20:02:24.364Z,102193.41
2022-08-27T20:05:14.214Z,102195.75
2022-08-27T20:07:38.072Z,102207.75
2022-08-27T20:10:08.323Z,102212.78
2022-08-27T20:12:36.578Z,102209.06
2022-08-27T20:15:05.641Z,102216.84
2022-08-27T20:17:32.772Z,102210.44
2022-08-27T20:19:59.892Z,102205.75
2022-08-27T20:22:26.958Z,102200.88
2022-08-27T20:24:53.833Z,102197.00
2022-08-27T20:27:20.713Z,102191.47
2022-08-27T20:29:47.727Z,102189.66
2022-08-27T20:32:14.876Z,102180.00
2022-08-27T20:34:41.730Z,102174.84
2022-08-27T20:37:08.667Z,102175.78
2022-08-27T20:39:36.102Z,102192.56
2022-08-27T20:42:03.404Z,102192.63
2022-08-27T20:44:31.530Z,102189.03
2022-08-27T20:47:00.530Z,102188.06
2022-08-27T20:49:28.002Z,102191.25
2022-08-27T20:52:02.873Z,102196.75
2022-08-27T20:54:32.099Z,102188.34
2022-08-27T20:56:59.091Z,102196.44
2022-08-27T20:59:44.929Z,102194.56
2022-08-27T21:02:13.865Z,102194.94
2022-08-27T21:04:45.941Z,102196.25
2022-08-27T21:07:13.906Z,102190.81
2022-08-27T21:09:55.678Z,102191.81
2022-08-27T21:12:28.905Z,102190.78
2022-08-27T21:14:56.647Z,102185.97
2022-08-27T21:17:27.093Z,102181.81
2022-08-27T21:19:54.309Z,102187.72
2022-08-27T21:22:22.638Z,102173.38
2022-08-27T21:24:49.880Z,102167.91
2022-08-27T21:27:18.519Z,102177.00
2022-08-27T21:29:45.761Z,102173.16
2022-08-27T21:32:14.283Z,102173.13
2022-08-27T21:34:41.978Z,102184.66
2022-08-27T21:37:11.068Z,102195.09
2022-08-27T21:39:38.772Z,102207.25
2022-08-27T21:42:05.868Z,102214.69
2022-08-27T21:44:32.704Z,102219.09
2022-08-27T21:47:00.681Z,102222.03
2022-08-27T21:49:28.068Z,102223.28
2022-08-27T21:51:54.869Z,102218.31
2022-08-27T21:54:26.021Z,102221.50
2022-08-27T21:56:53.017Z,102209.31
2022-08-27T21:59:20.051Z,102210.75
2022-08-27T22:01:47.010Z,102208.91
2022-08-27T22:04:14.171Z,102203.47
2022-08-27T22:06:40.958Z,102211.41
2022-08-27T22:09:07.885Z,102209.00
2022-08-27T22:11:34.921Z,102205.22
2022-08-27T22:14:01.707Z,102200.63
2022-08-27T22:16:29.254Z,102209.34
2022-08-27T22:18:58.950Z,102215.97
2022-08-27T22:21:26.788Z,102214.53
2022-08-27T22:23:53.615Z,102220.16
2022-08-27T22:26:21.079Z,102239.00
2022-08-27T22:28:48.712Z,102235.84
2022-08-27T22:31:15.763Z,102242.41
2022-08-27T22:33:42.927Z,102241.72
2022-08-27T22:36:10.044Z,102252.28
2022-08-27T22:38:37.040Z,102247.81
2022-08-27T22:41:05.994Z,102253.16
2022-08-27T22:43:34.190Z,102247.78
2022-08-27T22:46:01.178Z,102245.66
2022-08-27T22:48:27.970Z,102251.44
2022-08-27T22:50:54.778Z,102244.59
2022-08-27T22:53:21.568Z,102246.00
2022-08-27T22:55:50.345Z,102239.06
2022-08-27T22:58:18.118Z,102248.91
2022-08-27T23:00:51.922Z,102251.09
2022-08-27T23:03:20.249Z,102251.28
2022-08-27T23:05:47.717Z,102262.06
2022-08-27T23:08:15.321Z,102262.78
2022-08-27T23:10:43.373Z,102262.63
2022-08-27T23:13:11.393Z,102264.28
2022-08-27T23:15:39.088Z,102264.28
2022-08-27T23:18:06.064Z,102261.72
2022-08-27T23:20:33.076Z,102260.91
2022-08-27T23:23:00.025Z,102255.59
2022-08-27T23:25:45.689Z,102253.63
2022-08-27T23:28:15.156Z,102252.03
2022-08-27T23:30:44.266Z,102257.69
2022-08-27T23:33:11.973Z,102262.16
2022-08-27T23:35:38.920Z,102254.94
2022-08-27T23:38:05.818Z,102251.25
2022-08-27T23:40:32.657Z,102258.19
2022-08-27T23:42:59.559Z,102256.34
2022-08-27T23:45:26.967Z,102252.94
2022-08-27T23:47:53.885Z,102256.44
2022-08-27T23:50:24.679Z,102253.75
2022-08-27T23:53:01.764Z,102253.38
2022-08-27T23:55:29.112Z,102251.19
2022-08-27T23:57:57.541Z,102268.06
